Raymond, Ohio
Current Conditions -  °F | °C
As of 7:33 AM on Thursday 29 Jan 2015 (Local Time) from KMRT Reporting Station
Overcast Overcast  
Wind Chill: 22°   Ceiling: 6000
Heat Index: 32°   Visibility: 7mi
Dew Point: 25°   Wind: 13mph
Humidity: 76%   Direction: 190°S
Pressure: 29.88"   Gusts: NA
Location:  40.33°N, 83.47°W
Report Text: KMRT 291233Z AUTO 19011KT 7SM SCT020 SCT027 OVC060 00/M04 A2988 RMK AO2 T10011038
Loading
Personal Weather Stations






























Interactive Weather Map New forecast layout! Learn more

10-Day Weather Forecast

Advertisements
Track Severe Weather on mobile